sensor_id;sensor_type;location;lat;lon;timestamp;pressure;altitude;pressure_sealevel;temperature;humidity
27358;BME280;14831;50.474;7.616;2022-12-07T00:04:21;98120;;;1.5;96.5
27358;BME280;14831;50.474;7.616;2022-12-07T00:09:21;98120;;;1.5;96.5
27358;BME280;14831;50.474;7.616;2022-12-07T00:14:21;98110;;;1.5;96.5
27358;BME280;14831;50.474;7.616;2022-12-07T00:19:21;98110;;;1.5;96.5
27358;BME280;14831;50.474;7.616;2022-12-07T00:24:21;98100;;;1.5;96.5
27358;BME280;14831;50.474;7.616;2022-12-07T00:29:21;98100;;;1.6;96.5
27358;BME280;14831;50.474;7.616;2022-12-07T00:34:21;98100;;;1.6;96.5
27358;BME280;14831;50.474;7.616;2022-12-07T00:39:22;98100;;;1.6;96.5
27358;BME280;14831;50.474;7.616;2022-12-07T00:44:21;98100;;;1.6;96.5
27358;BME280;14831;50.474;7.616;2022-12-07T00:49:21;98090;;;1.6;96.5
27358;BME280;14831;50.474;7.616;2022-12-07T00:54:21;98090;;;1.6;96.5
27358;BME280;14831;50.474;7.616;2022-12-07T00:59:21;98100;;;1.6;96.5
27358;BME280;14831;50.474;7.616;2022-12-07T01:04:21;98090;;;1.6;96.5
27358;BME280;14831;50.474;7.616;2022-12-07T01:09:21;98090;;;1.6;96.5
27358;BME280;14831;50.474;7.616;2022-12-07T01:14:21;98080;;;1.6;96.5
27358;BME280;14831;50.474;7.616;2022-12-07T01:19:21;98080;;;1.6;96.5
27358;BME280;14831;50.474;7.616;2022-12-07T01:24:22;98090;;;1.7;96.5
27358;BME280;14831;50.474;7.616;2022-12-07T01:29:21;98080;;;1.7;96.5
27358;BME280;14831;50.474;7.616;2022-12-07T01:34:21;98080;;;1.7;96.5
27358;BME280;14831;50.474;7.616;2022-12-07T01:39:21;98080;;;1.8;96.5
27358;BME280;14831;50.474;7.616;2022-12-07T01:44:22;98080;;;1.8;96.5
27358;BME280;14831;50.474;7.616;2022-12-07T01:49:23;98080;;;1.8;96.5
27358;BME280;14831;50.474;7.616;2022-12-07T01:54:21;98070;;;1.8;96.5
27358;BME280;14831;50.474;7.616;2022-12-07T01:59:21;98060;;;1.8;96.5
27358;BME280;14831;50.474;7.616;2022-12-07T02:04:21;98060;;;1.8;96.5
27358;BME280;14831;50.474;7.616;2022-12-07T02:09:21;98050;;;1.8;96.5
27358;BME280;14831;50.474;7.616;2022-12-07T02:14:21;98060;;;1.8;96.5
27358;BME280;14831;50.474;7.616;2022-12-07T02:19:31;98060;;;1.8;96.5
27358;BME280;14831;50.474;7.616;2022-12-07T02:24:25;98060;;;1.8;96.5
27358;BME280;14831;50.474;7.616;2022-12-07T02:29:22;98060;;;1.9;96.5
27358;BME280;14831;50.474;7.616;2022-12-07T02:34:23;98050;;;1.9;96.5
27358;BME280;14831;50.474;7.616;2022-12-07T02:39:23;98050;;;1.9;96.5
27358;BME280;14831;50.474;7.616;2022-12-07T02:44:22;98050;;;1.9;96.5
27358;BME280;14831;50.474;7.616;2022-12-07T02:49:21;98050;;;1.9;96.5
27358;BME280;14831;50.474;7.616;2022-12-07T02:54:21;98050;;;1.9;96.5
27358;BME280;14831;50.474;7.616;2022-12-07T02:59:25;98040;;;2.0;96.5
27358;BME280;14831;50.474;7.616;2022-12-07T03:04:26;98040;;;2.0;96.5
27358;BME280;14831;50.474;7.616;2022-12-07T03:09:22;98030;;;2.0;96.6
27358;BME280;14831;50.474;7.616;2022-12-07T03:14:21;98030;;;2.0;96.6
27358;BME280;14831;50.474;7.616;2022-12-07T03:19:21;98030;;;2.0;96.6
27358;BME280;14831;50.474;7.616;2022-12-07T03:24:22;98040;;;2.0;96.6
27358;BME280;14831;50.474;7.616;2022-12-07T03:29:22;98040;;;2.0;96.6
27358;BME280;14831;50.474;7.616;2022-12-07T03:34:21;98040;;;2.0;96.6
27358;BME280;14831;50.474;7.616;2022-12-07T03:39:22;98040;;;2.1;96.6
27358;BME280;14831;50.474;7.616;2022-12-07T03:44:21;98030;;;2.1;96.6
27358;BME280;14831;50.474;7.616;2022-12-07T03:49:22;98040;;;2.1;96.6
27358;BME280;14831;50.474;7.616;2022-12-07T03:54:21;98040;;;2.1;96.6
27358;BME280;14831;50.474;7.616;2022-12-07T03:59:21;98030;;;2.1;96.6
27358;BME280;14831;50.474;7.616;2022-12-07T04:04:21;98030;;;2.1;96.6
27358;BME280;14831;50.474;7.616;2022-12-07T04:09:21;98020;;;2.1;96.6
27358;BME280;14831;50.474;7.616;2022-12-07T04:14:21;98020;;;2.1;96.6
27358;BME280;14831;50.474;7.616;2022-12-07T04:19:22;98020;;;2.1;96.6
27358;BME280;14831;50.474;7.616;2022-12-07T04:24:21;98030;;;2.2;96.6
27358;BME280;14831;50.474;7.616;2022-12-07T04:29:21;98010;;;2.2;96.6
27358;BME280;14831;50.474;7.616;2022-12-07T04:34:21;98020;;;2.2;96.6
27358;BME280;14831;50.474;7.616;2022-12-07T04:39:22;98020;;;2.2;96.6
27358;BME280;14831;50.474;7.616;2022-12-07T04:44:21;98020;;;2.3;96.6
27358;BME280;14831;50.474;7.616;2022-12-07T04:49:21;98010;;;2.3;96.6
27358;BME280;14831;50.474;7.616;2022-12-07T04:54:21;98010;;;2.3;96.6
27358;BME280;14831;50.474;7.616;2022-12-07T04:59:21;98010;;;2.3;96.6
27358;BME280;14831;50.474;7.616;2022-12-07T05:04:21;98010;;;2.3;96.6
27358;BME280;14831;50.474;7.616;2022-12-07T05:09:21;98020;;;2.4;96.6
27358;BME280;14831;50.474;7.616;2022-12-07T05:14:21;98020;;;2.4;96.6
27358;BME280;14831;50.474;7.616;2022-12-07T05:19:21;98020;;;2.4;96.6
27358;BME280;14831;50.474;7.616;2022-12-07T05:24:21;98030;;;2.4;96.6
27358;BME280;14831;50.474;7.616;2022-12-07T05:29:21;98030;;;2.3;96.6
27358;BME280;14831;50.474;7.616;2022-12-07T05:34:21;98030;;;2.3;96.6
27358;BME280;14831;50.474;7.616;2022-12-07T05:39:21;98020;;;2.4;96.6
27358;BME280;14831;50.474;7.616;2022-12-07T05:44:21;98020;;;2.4;96.6
27358;BME280;14831;50.474;7.616;2022-12-07T05:49:21;98010;;;2.4;96.6
27358;BME280;14831;50.474;7.616;2022-12-07T05:54:21;98010;;;2.4;96.6
27358;BME280;14831;50.474;7.616;2022-12-07T05:59:21;98010;;;2.4;96.6
27358;BME280;14831;50.474;7.616;2022-12-07T06:04:21;98010;;;2.4;96.6
27358;BME280;14831;50.474;7.616;2022-12-07T06:09:22;98020;;;2.4;96.6
27358;BME280;14831;50.474;7.616;2022-12-07T06:14:21;98030;;;2.4;96.6
27358;BME280;14831;50.474;7.616;2022-12-07T06:19:21;98030;;;2.4;96.6
27358;BME280;14831;50.474;7.616;2022-12-07T06:24:21;98030;;;2.4;96.6
27358;BME280;14831;50.474;7.616;2022-12-07T06:29:21;98020;;;2.3;96.6
27358;BME280;14831;50.474;7.616;2022-12-07T06:34:21;98030;;;2.3;96.6
27358;BME280;14831;50.474;7.616;2022-12-07T06:39:21;98030;;;2.3;96.6
27358;BME280;14831;50.474;7.616;2022-12-07T06:44:21;98040;;;2.3;96.6
27358;BME280;14831;50.474;7.616;2022-12-07T06:49:21;98030;;;2.3;96.6
27358;BME280;14831;50.474;7.616;2022-12-07T06:54:21;98040;;;2.4;96.6
27358;BME280;14831;50.474;7.616;2022-12-07T06:59:21;98030;;;2.3;96.6
27358;BME280;14831;50.474;7.616;2022-12-07T07:04:21;98040;;;2.3;96.6
27358;BME280;14831;50.474;7.616;2022-12-07T07:09:21;98040;;;2.3;96.6
27358;BME280;14831;50.474;7.616;2022-12-07T07:14:21;98050;;;2.4;96.6
27358;BME280;14831;50.474;7.616;2022-12-07T07:19:21;98050;;;2.4;96.6
27358;BME280;14831;50.474;7.616;2022-12-07T07:24:21;98050;;;2.3;96.6
27358;BME280;14831;50.474;7.616;2022-12-07T07:29:21;98060;;;2.2;96.6
27358;BME280;14831;50.474;7.616;2022-12-07T07:34:21;98070;;;2.2;96.6
27358;BME280;14831;50.474;7.616;2022-12-07T07:39:21;98070;;;2.2;96.6
27358;BME280;14831;50.474;7.616;2022-12-07T07:44:21;98080;;;2.1;96.6
27358;BME280;14831;50.474;7.616;2022-12-07T07:49:21;98070;;;2.1;96.6
27358;BME280;14831;50.474;7.616;2022-12-07T07:54:21;98060;;;2.1;96.6
27358;BME280;14831;50.474;7.616;2022-12-07T07:59:21;98060;;;2.0;96.6
27358;BME280;14831;50.474;7.616;2022-12-07T08:04:21;98070;;;2.0;96.6
27358;BME280;14831;50.474;7.616;2022-12-07T08:09:21;98070;;;2.1;96.6
27358;BME280;14831;50.474;7.616;2022-12-07T08:14:21;98070;;;2.1;96.6
27358;BME280;14831;50.474;7.616;2022-12-07T08:19:21;98070;;;2.1;96.6
27358;BME280;14831;50.474;7.616;2022-12-07T08:24:21;98070;;;2.2;96.6
27358;BME280;14831;50.474;7.616;2022-12-07T08:29:21;98070;;;2.2;96.6
27358;BME280;14831;50.474;7.616;2022-12-07T08:34:21;98070;;;2.3;96.6
27358;BME280;14831;50.474;7.616;2022-12-07T08:39:21;98060;;;2.4;96.6
27358;BME280;14831;50.474;7.616;2022-12-07T08:44:21;98070;;;2.5;96.6
27358;BME280;14831;50.474;7.616;2022-12-07T08:49:22;98070;;;2.6;96.6
27358;BME280;14831;50.474;7.616;2022-12-07T08:54:21;98070;;;2.7;96.6
27358;BME280;14831;50.474;7.616;2022-12-07T08:59:21;98070;;;2.7;96.7
27358;BME280;14831;50.474;7.616;2022-12-07T09:04:21;98080;;;2.8;96.7
27358;BME280;14831;50.474;7.616;2022-12-07T09:09:21;98090;;;2.8;96.7
27358;BME280;14831;50.474;7.616;2022-12-07T09:14:21;98090;;;2.9;96.7
27358;BME280;14831;50.474;7.616;2022-12-07T09:19:21;98080;;;2.9;96.7
27358;BME280;14831;50.474;7.616;2022-12-07T09:24:21;98090;;;2.8;96.7
27358;BME280;14831;50.474;7.616;2022-12-07T09:29:21;98090;;;2.7;96.7
27358;BME280;14831;50.474;7.616;2022-12-07T09:34:21;98090;;;2.7;96.7
27358;BME280;14831;50.474;7.616;2022-12-07T09:39:21;98100;;;2.7;96.7
27358;BME280;14831;50.474;7.616;2022-12-07T09:44:21;98090;;;2.7;96.7
27358;BME280;14831;50.474;7.616;2022-12-07T09:49:21;98100;;;2.8;96.7
27358;BME280;14831;50.474;7.616;2022-12-07T09:54:21;98080;;;2.9;96.7
27358;BME280;14831;50.474;7.616;2022-12-07T09:59:21;98070;;;2.9;96.4
27358;BME280;14831;50.474;7.616;2022-12-07T10:04:22;98080;;;3.0;96.3
27358;BME280;14831;50.474;7.616;2022-12-07T10:09:21;98080;;;3.0;95.6
27358;BME280;14831;50.474;7.616;2022-12-07T10:14:21;98070;;;3.1;96.1
27358;BME280;14831;50.474;7.616;2022-12-07T10:19:23;98070;;;3.1;96.2
27358;BME280;14831;50.474;7.616;2022-12-07T10:24:21;98070;;;3.1;96.1
27358;BME280;14831;50.474;7.616;2022-12-07T10:29:22;98070;;;3.1;95.9
27358;BME280;14831;50.474;7.616;2022-12-07T10:34:22;98060;;;3.2;96.3
27358;BME280;14831;50.474;7.616;2022-12-07T10:39:21;98060;;;3.2;96.5
27358;BME280;14831;50.474;7.616;2022-12-07T10:44:21;98050;;;3.3;96.4
27358;BME280;14831;50.474;7.616;2022-12-07T10:49:27;98030;;;3.5;96.3
27358;BME280;14831;50.474;7.616;2022-12-07T10:54:22;98040;;;3.5;95.9
27358;BME280;14831;50.474;7.616;2022-12-07T10:59:34;98040;;;3.4;95.7
27358;BME280;14831;50.474;7.616;2022-12-07T11:04:23;98050;;;3.2;96.0
27358;BME280;14831;50.474;7.616;2022-12-07T11:09:27;98050;;;3.3;96.0
27358;BME280;14831;50.474;7.616;2022-12-07T11:14:22;98040;;;3.3;95.7
27358;BME280;14831;50.474;7.616;2022-12-07T11:19:25;98030;;;3.3;95.1
27358;BME280;14831;50.474;7.616;2022-12-07T11:24:23;98030;;;3.4;94.8
27358;BME280;14831;50.474;7.616;2022-12-07T11:29:25;98030;;;3.5;94.4
27358;BME280;14831;50.474;7.616;2022-12-07T11:34:23;98010;;;3.7;95.2
27358;BME280;14831;50.474;7.616;2022-12-07T11:39:23;97990;;;4.2;94.6
27358;BME280;14831;50.474;7.616;2022-12-07T11:44:24;98020;;;4.2;94.0
27358;BME280;14831;50.474;7.616;2022-12-07T11:49:23;97980;;;4.2;93.2
27358;BME280;14831;50.474;7.616;2022-12-07T11:54:21;97960;;;4.3;93.0
27358;BME280;14831;50.474;7.616;2022-12-07T11:59:22;98000;;;4.4;92.5
27358;BME280;14831;50.474;7.616;2022-12-07T12:04:25;98020;;;4.3;92.6
27358;BME280;14831;50.474;7.616;2022-12-07T12:09:21;98010;;;4.0;93.1
27358;BME280;14831;50.474;7.616;2022-12-07T12:14:25;98030;;;3.2;88.2
27358;BME280;14831;50.474;7.616;2022-12-07T12:19:23;98010;;;2.9;92.1
27358;BME280;14831;50.474;7.616;2022-12-07T12:24:22;98010;;;2.8;92.4
27358;BME280;14831;50.474;7.616;2022-12-07T12:29:21;98000;;;2.7;92.8
27358;BME280;14831;50.474;7.616;2022-12-07T12:34:30;97990;;;2.6;92.7
27358;BME280;14831;50.474;7.616;2022-12-07T12:39:21;97990;;;2.7;93.6
27358;BME280;14831;50.474;7.616;2022-12-07T12:44:38;97980;;;2.8;93.8
27358;BME280;14831;50.474;7.616;2022-12-07T12:49:36;97990;;;2.9;93.8
27358;BME280;14831;50.474;7.616;2022-12-07T12:54:21;97980;;;2.7;93.2
27358;BME280;14831;50.474;7.616;2022-12-07T12:59:23;97980;;;2.8;93.4
27358;BME280;14831;50.474;7.616;2022-12-07T13:04:38;97970;;;2.7;93.7
27358;BME280;14831;50.474;7.616;2022-12-07T13:09:21;97960;;;2.8;92.8
27358;BME280;14831;50.474;7.616;2022-12-07T13:14:54;97970;;;2.8;93.5
27358;BME280;14831;50.474;7.616;2022-12-07T13:19:53;97970;;;2.8;93.3
27358;BME280;14831;50.474;7.616;2022-12-07T13:24:21;97940;;;3.2;93.4
27358;BME280;14831;50.474;7.616;2022-12-07T13:29:21;97970;;;3.4;94.0
27358;BME280;14831;50.474;7.616;2022-12-07T13:34:30;97960;;;3.4;93.6
27358;BME280;14831;50.474;7.616;2022-12-07T13:39:21;97960;;;3.3;93.1
27358;BME280;14831;50.474;7.616;2022-12-07T13:44:21;97970;;;3.1;92.2
27358;BME280;14831;50.474;7.616;2022-12-07T13:49:22;97960;;;2.8;92.5
27358;BME280;14831;50.474;7.616;2022-12-07T13:54:21;97970;;;3.1;93.9
27358;BME280;14831;50.474;7.616;2022-12-07T13:59:21;97960;;;3.6;93.8
27358;BME280;14831;50.474;7.616;2022-12-07T14:04:36;97950;;;3.8;92.6
27358;BME280;14831;50.474;7.616;2022-12-07T14:09:22;97960;;;3.9;92.5
27358;BME280;14831;50.474;7.616;2022-12-07T14:14:22;97950;;;4.0;91.1
27358;BME280;14831;50.474;7.616;2022-12-07T14:19:39;97960;;;4.0;90.3
27358;BME280;14831;50.474;7.616;2022-12-07T14:24:21;97950;;;4.1;90.7
27358;BME280;14831;50.474;7.616;2022-12-07T14:29:27;97950;;;3.8;90.0
27358;BME280;14831;50.474;7.616;2022-12-07T14:34:21;97950;;;3.7;90.7
27358;BME280;14831;50.474;7.616;2022-12-07T14:39:21;97940;;;3.6;90.8
27358;BME280;14831;50.474;7.616;2022-12-07T14:44:22;97950;;;3.5;92.0
27358;BME280;14831;50.474;7.616;2022-12-07T14:49:21;97940;;;3.4;92.0
27358;BME280;14831;50.474;7.616;2022-12-07T14:54:21;97930;;;3.2;92.6
27358;BME280;14831;50.474;7.616;2022-12-07T14:59:21;97930;;;3.0;92.3
27358;BME280;14831;50.474;7.616;2022-12-07T15:04:21;97940;;;2.8;92.3
27358;BME280;14831;50.474;7.616;2022-12-07T15:09:21;97910;;;2.7;93.0
27358;BME280;14831;50.474;7.616;2022-12-07T15:14:21;97910;;;2.7;93.2
27358;BME280;14831;50.474;7.616;2022-12-07T15:19:22;97900;;;2.6;93.3
27358;BME280;14831;50.474;7.616;2022-12-07T15:24:21;97900;;;2.6;93.5
27358;BME280;14831;50.474;7.616;2022-12-07T15:29:21;97910;;;2.6;93.5
27358;BME280;14831;50.474;7.616;2022-12-07T15:34:22;97910;;;2.6;93.7
27358;BME280;14831;50.474;7.616;2022-12-07T15:39:21;97900;;;2.6;94.1
27358;BME280;14831;50.474;7.616;2022-12-07T15:44:21;97880;;;2.4;94.4
27358;BME280;14831;50.474;7.616;2022-12-07T15:49:21;97880;;;2.4;94.0
27358;BME280;14831;50.474;7.616;2022-12-07T15:54:22;97880;;;2.3;94.0
27358;BME280;14831;50.474;7.616;2022-12-07T15:59:21;97880;;;2.3;94.0
27358;BME280;14831;50.474;7.616;2022-12-07T16:04:21;97870;;;2.3;94.3
27358;BME280;14831;50.474;7.616;2022-12-07T16:09:21;97850;;;2.3;94.5
27358;BME280;14831;50.474;7.616;2022-12-07T16:14:21;97860;;;2.3;94.6
27358;BME280;14831;50.474;7.616;2022-12-07T16:19:21;97850;;;2.3;94.9
27358;BME280;14831;50.474;7.616;2022-12-07T16:24:21;97860;;;2.3;94.9
27358;BME280;14831;50.474;7.616;2022-12-07T16:29:21;97850;;;2.3;95.0
27358;BME280;14831;50.474;7.616;2022-12-07T16:34:21;97850;;;2.2;95.3
27358;BME280;14831;50.474;7.616;2022-12-07T16:39:21;97850;;;2.2;95.4
27358;BME280;14831;50.474;7.616;2022-12-07T16:44:21;97850;;;2.2;95.8
27358;BME280;14831;50.474;7.616;2022-12-07T16:49:21;97850;;;2.2;95.4
27358;BME280;14831;50.474;7.616;2022-12-07T16:54:21;97830;;;2.2;95.4
27358;BME280;14831;50.474;7.616;2022-12-07T16:59:21;97830;;;2.2;95.8
27358;BME280;14831;50.474;7.616;2022-12-07T17:04:21;97820;;;2.2;95.9
27358;BME280;14831;50.474;7.616;2022-12-07T17:09:21;97820;;;2.2;96.0
27358;BME280;14831;50.474;7.616;2022-12-07T17:14:21;97810;;;2.2;95.6
27358;BME280;14831;50.474;7.616;2022-12-07T17:19:21;97810;;;2.2;95.6
27358;BME280;14831;50.474;7.616;2022-12-07T17:24:21;97810;;;2.1;95.4
27358;BME280;14831;50.474;7.616;2022-12-07T17:29:21;97810;;;2.0;95.4
27358;BME280;14831;50.474;7.616;2022-12-07T17:34:21;97810;;;2.0;95.7
27358;BME280;14831;50.474;7.616;2022-12-07T17:39:21;97800;;;2.0;95.4
27358;BME280;14831;50.474;7.616;2022-12-07T17:44:21;97800;;;1.9;95.6
27358;BME280;14831;50.474;7.616;2022-12-07T17:49:21;97790;;;1.8;95.7
27358;BME280;14831;50.474;7.616;2022-12-07T17:54:21;97790;;;1.8;95.5
27358;BME280;14831;50.474;7.616;2022-12-07T17:59:21;97790;;;1.7;95.7
27358;BME280;14831;50.474;7.616;2022-12-07T18:04:21;97790;;;1.8;95.9
27358;BME280;14831;50.474;7.616;2022-12-07T18:09:21;97790;;;1.9;95.7
27358;BME280;14831;50.474;7.616;2022-12-07T18:14:21;97790;;;1.9;95.7
27358;BME280;14831;50.474;7.616;2022-12-07T18:19:21;97780;;;1.9;95.5
27358;BME280;14831;50.474;7.616;2022-12-07T18:24:21;97780;;;2.0;95.5
27358;BME280;14831;50.474;7.616;2022-12-07T18:29:21;97770;;;2.0;95.6
27358;BME280;14831;50.474;7.616;2022-12-07T18:34:21;97770;;;2.0;95.5
27358;BME280;14831;50.474;7.616;2022-12-07T18:39:21;97760;;;2.0;95.5
27358;BME280;14831;50.474;7.616;2022-12-07T18:44:21;97760;;;2.0;95.3
27358;BME280;14831;50.474;7.616;2022-12-07T18:49:21;97760;;;2.0;95.4
27358;BME280;14831;50.474;7.616;2022-12-07T18:54:21;97760;;;2.0;95.3
27358;BME280;14831;50.474;7.616;2022-12-07T18:59:21;97750;;;2.0;95.5
27358;BME280;14831;50.474;7.616;2022-12-07T19:04:21;97750;;;2.0;95.3
27358;BME280;14831;50.474;7.616;2022-12-07T19:09:21;97750;;;2.1;95.3
27358;BME280;14831;50.474;7.616;2022-12-07T19:14:22;97740;;;2.1;95.3
27358;BME280;14831;50.474;7.616;2022-12-07T19:19:22;97750;;;2.1;95.3
27358;BME280;14831;50.474;7.616;2022-12-07T19:24:21;97750;;;2.1;94.8
27358;BME280;14831;50.474;7.616;2022-12-07T19:29:21;97740;;;2.0;94.7
27358;BME280;14831;50.474;7.616;2022-12-07T19:34:21;97750;;;2.0;94.6
27358;BME280;14831;50.474;7.616;2022-12-07T19:39:21;97740;;;2.0;94.7
27358;BME280;14831;50.474;7.616;2022-12-07T19:44:22;97730;;;2.0;94.7
27358;BME280;14831;50.474;7.616;2022-12-07T19:49:22;97740;;;2.0;94.6
27358;BME280;14831;50.474;7.616;2022-12-07T19:54:22;97720;;;2.1;94.5
27358;BME280;14831;50.474;7.616;2022-12-07T19:59:22;97730;;;2.1;94.3
27358;BME280;14831;50.474;7.616;2022-12-07T20:04:22;97720;;;2.1;94.4
27358;BME280;14831;50.474;7.616;2022-12-07T20:09:21;97710;;;2.1;94.1
27358;BME280;14831;50.474;7.616;2022-12-07T20:14:21;97710;;;2.1;93.9
27358;BME280;14831;50.474;7.616;2022-12-07T20:19:21;97710;;;2.1;94.1
27358;BME280;14831;50.474;7.616;2022-12-07T20:24:22;97700;;;2.1;93.8
27358;BME280;14831;50.474;7.616;2022-12-07T20:29:22;97700;;;2.0;94.2
27358;BME280;14831;50.474;7.616;2022-12-07T20:34:21;97700;;;2.0;94.2
27358;BME280;14831;50.474;7.616;2022-12-07T20:39:21;97710;;;2.1;94.3
27358;BME280;14831;50.474;7.616;2022-12-07T20:44:21;97700;;;2.1;94.1
27358;BME280;14831;50.474;7.616;2022-12-07T20:49:21;97700;;;2.1;94.2
27358;BME280;14831;50.474;7.616;2022-12-07T20:54:21;97700;;;2.1;94.3
27358;BME280;14831;50.474;7.616;2022-12-07T20:59:21;97700;;;2.1;94.3
27358;BME280;14831;50.474;7.616;2022-12-07T21:04:21;97680;;;2.1;94.2
27358;BME280;14831;50.474;7.616;2022-12-07T21:09:21;97690;;;2.1;94.3
27358;BME280;14831;50.474;7.616;2022-12-07T21:14:21;97680;;;2.0;94.3
27358;BME280;14831;50.474;7.616;2022-12-07T21:19:21;97690;;;2.0;94.1
27358;BME280;14831;50.474;7.616;2022-12-07T21:24:21;97670;;;2.1;94.3
27358;BME280;14831;50.474;7.616;2022-12-07T21:29:21;97680;;;2.1;94.1
27358;BME280;14831;50.474;7.616;2022-12-07T21:34:21;97670;;;2.0;94.4
27358;BME280;14831;50.474;7.616;2022-12-07T21:39:21;97670;;;2.0;94.5
27358;BME280;14831;50.474;7.616;2022-12-07T21:44:21;97670;;;2.0;94.5
27358;BME280;14831;50.474;7.616;2022-12-07T21:49:21;97670;;;2.0;94.5
27358;BME280;14831;50.474;7.616;2022-12-07T21:54:21;97650;;;1.9;94.6
27358;BME280;14831;50.474;7.616;2022-12-07T21:59:21;97650;;;1.9;94.7
27358;BME280;14831;50.474;7.616;2022-12-07T22:04:21;97660;;;1.9;94.8
27358;BME280;14831;50.474;7.616;2022-12-07T22:09:21;97650;;;1.8;95.1
27358;BME280;14831;50.474;7.616;2022-12-07T22:14:21;97650;;;1.8;95.2
27358;BME280;14831;50.474;7.616;2022-12-07T22:19:21;97640;;;1.9;95.3
27358;BME280;14831;50.474;7.616;2022-12-07T22:24:21;97640;;;1.9;95.1
27358;BME280;14831;50.474;7.616;2022-12-07T22:29:21;97640;;;1.9;94.8
27358;BME280;14831;50.474;7.616;2022-12-07T22:34:21;97630;;;2.0;94.8
27358;BME280;14831;50.474;7.616;2022-12-07T22:39:21;97630;;;2.0;94.7
27358;BME280;14831;50.474;7.616;2022-12-07T22:44:21;97630;;;2.0;94.5
27358;BME280;14831;50.474;7.616;2022-12-07T22:49:21;97630;;;2.0;94.5
27358;BME280;14831;50.474;7.616;2022-12-07T22:54:21;97620;;;2.0;94.6
27358;BME280;14831;50.474;7.616;2022-12-07T22:59:21;97610;;;2.0;93.5
27358;BME280;14831;50.474;7.616;2022-12-07T23:04:21;97610;;;2.1;93.4
27358;BME280;14831;50.474;7.616;2022-12-07T23:09:21;97610;;;2.1;93.6
27358;BME280;14831;50.474;7.616;2022-12-07T23:14:22;97590;;;2.1;93.3
27358;BME280;14831;50.474;7.616;2022-12-07T23:19:21;97580;;;2.1;93.6
27358;BME280;14831;50.474;7.616;2022-12-07T23:24:21;97590;;;2.0;93.5
27358;BME280;14831;50.474;7.616;2022-12-07T23:29:21;97590;;;2.0;93.8
27358;BME280;14831;50.474;7.616;2022-12-07T23:34:21;97580;;;2.0;94.0
27358;BME280;14831;50.474;7.616;2022-12-07T23:39:21;97570;;;2.0;94.2
27358;BME280;14831;50.474;7.616;2022-12-07T23:44:21;97580;;;1.9;94.2
27358;BME280;14831;50.474;7.616;2022-12-07T23:49:21;97570;;;1.9;94.1
27358;BME280;14831;50.474;7.616;2022-12-07T23:54:21;97570;;;1.9;94.2
27358;BME280;14831;50.474;7.616;2022-12-07T23:59:21;97560;;;1.9;94.1
